Tacoma Narrows Airport
KTIW : now visible

Airfield :











YOU CAN JOIN US ON...

 
LOGIN :

Register | Disclaimer

   EN    FR    IT 

 









Legend :    VFR   Marginal VFR   IFR   Intensive IFR   Very Intensive IFR
Visi :
Ceiling :
>= 8 km
>= 3000ft
5 to 8 km
1000 to 3000 ft
1500m to 5 km
500 to 1000 ft
800 to 1500m
200 to 500 ft
< 800m
< 200 ft
Symbols :   Thunderstorms  Fog  Heavy snow  Heavy precipitations  Wind > 20 kt






- Airport Elevation : 294 ft


KTIW - Tacoma Narrows

CURRENT METAR :
  • 252053Z 01009KT 10SM CLR 22/11 A3012 RMK AO2 SLP197 T02220106 58023

EXPIRED METARs :
  • 251953Z 02007KT 10SM CLR 21/11 A3016 RMK AO2 SLP208 T02110111
  • 251853Z 01009KT 10SM CLR 19/12 A3017 RMK AO2 SLP213 T01940117

TAF N/A
KZSE FIR / North America



MET'MAP, your aeronautical weather chart ! - Copyright ORBIFLY December 2007 - Disclaimer

ORBIFLY MET'MAP TEAM :

Programming & Development : Alexandra Zaïnal
Original concept : Baudouin d'Aumeries
Technical & hardware support : Manuel Goepfert
Assistance : Marc-Olivier Méhu




SOURCES & CREDITS :

   NOAA       Earth
Advisory